createdAt,value
2019-03-23T00:01:37.671Z,7.50
2019-03-23T00:04:06.112Z,7.60
2019-03-23T00:06:36.094Z,7.70
2019-03-23T00:09:05.440Z,7.70
2019-03-23T00:11:33.960Z,7.60
2019-03-23T00:14:02.666Z,7.40
2019-03-23T00:16:31.138Z,7.30
2019-03-23T00:18:59.595Z,7.30
2019-03-23T00:21:28.191Z,7.30
2019-03-23T00:23:56.761Z,7.30
2019-03-23T00:26:25.298Z,7.20
2019-03-23T00:28:53.762Z,7.20
2019-03-23T00:31:22.404Z,7.10
2019-03-23T00:33:50.878Z,7.10
2019-03-23T00:36:19.328Z,7.10
2019-03-23T00:38:47.850Z,7.10
2019-03-23T00:41:16.338Z,7.00
2019-03-23T00:43:44.767Z,7.00
2019-03-23T00:46:13.252Z,7.00
2019-03-23T00:48:41.775Z,6.80
2019-03-23T00:51:10.296Z,6.70
2019-03-23T00:53:38.772Z,6.60
2019-03-23T00:56:07.275Z,6.50
2019-03-23T00:58:35.804Z,6.40
2019-03-23T01:01:04.328Z,6.40
2019-03-23T01:03:32.958Z,6.30
2019-03-23T01:06:01.523Z,6.40
2019-03-23T01:08:29.950Z,6.40
2019-03-23T01:10:58.464Z,6.40
2019-03-23T01:13:26.926Z,6.30
2019-03-23T01:15:55.452Z,6.40
2019-03-23T01:18:23.887Z,6.50
2019-03-23T01:20:52.340Z,6.50
2019-03-23T01:23:20.837Z,6.40
2019-03-23T01:25:49.436Z,6.40
2019-03-23T01:28:17.917Z,6.30
2019-03-23T01:30:46.369Z,6.30
2019-03-23T01:33:14.824Z,6.20
2019-03-23T01:35:43.356Z,6.10
2019-03-23T01:38:11.813Z,6.00
2019-03-23T01:40:40.340Z,6.10
2019-03-23T01:43:10.614Z,6.00
2019-03-23T01:45:39.071Z,5.90
2019-03-23T01:48:07.598Z,5.90
2019-03-23T01:50:36.096Z,5.80
2019-03-23T01:53:04.566Z,5.70
2019-03-23T01:55:33.034Z,5.70
2019-03-23T01:58:01.519Z,5.70
2019-03-23T02:00:29.991Z,5.60
2019-03-23T02:02:58.480Z,5.60
2019-03-23T02:05:26.962Z,5.60
2019-03-23T02:07:55.431Z,5.60
2019-03-23T02:10:23.910Z,5.60
2019-03-23T02:12:52.457Z,5.70
2019-03-23T02:15:21.179Z,5.70
2019-03-23T02:17:49.636Z,5.60
2019-03-23T02:20:18.203Z,5.70
2019-03-23T02:22:46.682Z,5.70
2019-03-23T02:25:15.103Z,5.70
2019-03-23T02:27:43.688Z,5.70
2019-03-23T02:30:13.810Z,5.70
2019-03-23T02:32:42.374Z,5.60
2019-03-23T02:35:11.196Z,5.50
2019-03-23T02:37:39.728Z,5.60
2019-03-23T02:40:11.865Z,5.60
2019-03-23T02:42:40.379Z,5.60
2019-03-23T02:45:11.557Z,5.50
2019-03-23T02:47:40.061Z,5.40
2019-03-23T02:50:11.654Z,5.60
2019-03-23T02:52:40.107Z,5.40
2019-03-23T02:55:10.167Z,5.60
2019-03-23T02:57:38.725Z,6.10
2019-03-23T03:00:15.648Z,6.00
2019-03-23T03:02:44.139Z,6.10
2019-03-23T03:05:12.742Z,6.30
2019-03-23T03:07:43.255Z,6.30
2019-03-23T03:10:13.643Z,6.40
2019-03-23T03:12:42.071Z,6.40
2019-03-23T03:15:10.863Z,6.40
2019-03-23T03:17:39.335Z,6.50
2019-03-23T03:20:09.006Z,6.50
2019-03-23T03:22:37.429Z,6.50
2019-03-23T03:25:07.139Z,6.40
2019-03-23T03:27:35.726Z,6.40
2019-03-23T03:30:09.688Z,6.30
2019-03-23T03:32:38.491Z,6.30
2019-03-23T03:35:07.405Z,6.20
2019-03-23T03:37:35.913Z,6.20
2019-03-23T03:40:06.402Z,6.10
2019-03-23T03:42:35.029Z,6.20
2019-03-23T03:45:05.043Z,6.20
2019-03-23T03:47:33.494Z,6.20
2019-03-23T03:50:01.965Z,6.10
2019-03-23T03:52:30.489Z,6.00
2019-03-23T03:54:58.977Z,5.90
2019-03-23T03:57:27.423Z,5.90
2019-03-23T03:59:55.885Z,5.80
2019-03-23T04:02:24.368Z,5.60
2019-03-23T04:04:52.900Z,5.50
2019-03-23T04:07:21.416Z,5.40
2019-03-23T04:09:49.915Z,5.20
2019-03-23T04:12:18.423Z,5.20
2019-03-23T04:14:46.906Z,5.20
2019-03-23T04:17:15.572Z,5.00
2019-03-23T04:19:44.091Z,5.00
2019-03-23T04:22:12.573Z,4.90
2019-03-23T04:24:41.019Z,4.90
2019-03-23T04:27:09.500Z,4.90
2019-03-23T04:29:38.056Z,4.90
2019-03-23T04:32:06.503Z,4.90
2019-03-23T04:34:34.968Z,4.90
2019-03-23T04:37:03.749Z,4.90
2019-03-23T04:39:32.195Z,4.90
2019-03-23T04:42:21.492Z,4.80
2019-03-23T04:44:49.970Z,4.70
2019-03-23T04:47:18.469Z,4.70
2019-03-23T04:49:46.958Z,4.90
2019-03-23T04:52:15.427Z,5.20
2019-03-23T04:54:43.877Z,5.20
2019-03-23T04:57:12.298Z,5.30
2019-03-23T04:59:40.753Z,5.30
2019-03-23T05:02:09.222Z,5.20
2019-03-23T05:04:37.702Z,5.20
2019-03-23T05:07:06.114Z,5.40
2019-03-23T05:09:34.770Z,5.70
2019-03-23T05:12:03.183Z,5.70
2019-03-23T05:14:31.608Z,5.70
2019-03-23T05:17:01.903Z,5.80
2019-03-23T05:19:30.347Z,5.80
2019-03-23T05:21:58.770Z,5.60
2019-03-23T05:24:27.239Z,5.50
2019-03-23T05:26:55.644Z,5.40
2019-03-23T05:29:24.136Z,5.30
2019-03-23T05:31:52.634Z,5.30
2019-03-23T05:34:21.132Z,5.50
2019-03-23T05:36:49.667Z,5.50
2019-03-23T05:39:18.119Z,5.50
2019-03-23T05:41:46.578Z,5.50
2019-03-23T05:44:15.119Z,5.40
2019-03-23T05:46:43.579Z,5.40
2019-03-23T05:49:12.079Z,5.40
2019-03-23T05:51:40.495Z,5.40
2019-03-23T05:54:08.983Z,5.40
2019-03-23T05:56:37.403Z,5.40
2019-03-23T05:59:05.850Z,5.40
2019-03-23T06:01:34.316Z,5.40
2019-03-23T06:04:02.775Z,5.40
2019-03-23T06:06:31.249Z,5.50
2019-03-23T06:08:59.757Z,5.50
2019-03-23T06:11:28.224Z,5.60
2019-03-23T06:13:57.089Z,5.70
2019-03-23T06:16:25.527Z,5.70
2019-03-23T06:18:53.957Z,5.90
2019-03-23T06:21:42.773Z,5.90
2019-03-23T06:24:11.299Z,6.00
2019-03-23T06:26:39.845Z,6.10
2019-03-23T06:29:08.250Z,6.30
2019-03-23T06:31:36.722Z,6.50
2019-03-23T06:34:05.618Z,6.60
2019-03-23T06:36:34.801Z,6.90
2019-03-23T06:39:08.830Z,7.20
2019-03-23T06:41:37.310Z,7.10
2019-03-23T06:44:05.742Z,7.10
2019-03-23T06:46:34.166Z,7.30
2019-03-23T06:49:03.985Z,7.50
2019-03-23T06:51:32.466Z,7.50
2019-03-23T06:54:00.988Z,7.90
2019-03-23T06:56:29.442Z,8.40
2019-03-23T06:58:57.901Z,8.40
2019-03-23T07:01:26.412Z,9.00
2019-03-23T07:03:54.882Z,9.50
2019-03-23T07:06:23.755Z,10.10
2019-03-23T07:08:52.350Z,10.10
2019-03-23T07:11:20.836Z,11.10
2019-03-23T07:13:49.407Z,11.10
2019-03-23T07:16:17.877Z,10.80
2019-03-23T07:18:46.349Z,11.00
2019-03-23T07:21:14.846Z,10.70
2019-03-23T07:23:43.276Z,11.30
2019-03-23T07:26:11.749Z,11.40
2019-03-23T07:28:40.291Z,10.70
2019-03-23T07:31:08.822Z,11.40
2019-03-23T07:33:37.773Z,11.70
2019-03-23T07:36:06.359Z,11.90
2019-03-23T07:38:34.822Z,10.80
2019-03-23T07:41:10.387Z,11.20
2019-03-23T07:43:38.867Z,11.50
2019-03-23T07:46:07.564Z,11.40
2019-03-23T07:48:36.031Z,11.20
2019-03-23T07:51:04.735Z,11.50
2019-03-23T07:53:33.227Z,12.00
2019-03-23T07:56:01.724Z,11.60
2019-03-23T07:58:30.270Z,11.80
2019-03-23T08:00:58.750Z,11.70
2019-03-23T08:03:27.216Z,11.80
2019-03-23T08:05:55.623Z,11.20
2019-03-23T08:08:24.098Z,11.10
2019-03-23T08:10:52.530Z,10.90
2019-03-23T08:13:21.034Z,11.10
2019-03-23T08:15:49.531Z,11.40
2019-03-23T08:18:18.091Z,11.80
2019-03-23T08:20:46.569Z,12.10
2019-03-23T08:23:15.544Z,12.40
2019-03-23T08:25:43.998Z,12.00
2019-03-23T08:28:12.544Z,12.50
2019-03-23T08:30:40.953Z,12.80
2019-03-23T08:33:09.449Z,12.30
2019-03-23T08:35:37.869Z,12.60
2019-03-23T08:38:06.431Z,12.10
2019-03-23T08:40:35.942Z,12.20
2019-03-23T08:43:04.679Z,12.10
2019-03-23T08:45:33.205Z,12.80
2019-03-23T08:48:01.646Z,13.20
2019-03-23T08:50:30.305Z,13.70
2019-03-23T08:52:58.803Z,13.50
2019-03-23T08:55:27.302Z,13.20
2019-03-23T08:57:56.394Z,13.20
2019-03-23T09:00:24.947Z,12.90
2019-03-23T09:02:53.386Z,12.70
2019-03-23T09:05:21.892Z,12.60
2019-03-23T09:07:52.501Z,12.70
2019-03-23T09:10:20.487Z,12.70
2019-03-23T09:12:48.970Z,12.80
2019-03-23T09:15:17.739Z,13.10
2019-03-23T09:17:46.263Z,13.50
2019-03-23T09:20:14.888Z,13.10
2019-03-23T09:22:43.331Z,13.00
2019-03-23T09:25:11.863Z,12.90
2019-03-23T09:27:40.594Z,12.80
2019-03-23T09:30:16.175Z,13.30
2019-03-23T09:32:44.805Z,13.30
2019-03-23T09:35:13.338Z,13.20
2019-03-23T09:37:42.007Z,13.10
2019-03-23T09:40:13.402Z,13.00
2019-03-23T09:42:42.034Z,12.90
2019-03-23T09:45:10.674Z,13.00
2019-03-23T09:47:39.864Z,13.10
2019-03-23T09:50:10.218Z,13.10
2019-03-23T09:52:38.843Z,13.10
2019-03-23T09:55:11.664Z,13.10
2019-03-23T09:57:40.187Z,13.10
2019-03-23T10:00:15.127Z,13.10
2019-03-23T10:02:43.591Z,13.20
2019-03-23T10:05:12.215Z,13.70
2019-03-23T10:07:40.633Z,13.60
2019-03-23T10:10:09.590Z,13.50
2019-03-23T10:12:38.001Z,13.40
2019-03-23T10:15:08.408Z,13.40
2019-03-23T10:17:36.898Z,13.60
2019-03-23T10:20:07.030Z,13.80
2019-03-23T10:22:35.581Z,13.70
2019-03-23T10:25:05.923Z,13.80
2019-03-23T10:27:34.407Z,13.80
2019-03-23T10:30:03.296Z,13.60
2019-03-23T10:32:31.773Z,13.60
2019-03-23T10:35:00.455Z,13.80
2019-03-23T10:37:28.874Z,13.70
2019-03-23T10:39:57.410Z,14.30
2019-03-23T10:42:25.832Z,14.50
2019-03-23T10:44:54.270Z,14.60
2019-03-23T10:47:22.881Z,14.60
2019-03-23T10:49:57.294Z,14.30
2019-03-23T10:52:25.763Z,14.10
2019-03-23T10:54:54.207Z,14.10
2019-03-23T10:57:22.826Z,14.50
2019-03-23T10:59:51.271Z,14.90
2019-03-23T11:02:19.915Z,15.10
2019-03-23T11:04:48.382Z,15.20
2019-03-23T11:07:16.875Z,15.50
2019-03-23T11:09:45.532Z,15.70
2019-03-23T11:12:15.402Z,15.90
2019-03-23T11:14:49.586Z,15.50
2019-03-23T11:17:18.055Z,15.30
2019-03-23T11:19:46.522Z,15.60
2019-03-23T11:22:15.090Z,15.70
2019-03-23T11:24:43.509Z,15.80
2019-03-23T11:27:11.975Z,15.40
2019-03-23T11:29:40.394Z,15.20
2019-03-23T11:32:08.850Z,15.30
2019-03-23T11:34:37.340Z,15.20
2019-03-23T11:37:05.912Z,15.10
2019-03-23T11:39:34.656Z,15.30
2019-03-23T11:42:03.162Z,15.70
2019-03-23T11:44:31.571Z,15.60
2019-03-23T11:47:00.036Z,15.80
2019-03-23T11:49:28.486Z,16.00
2019-03-23T11:51:56.918Z,15.80
2019-03-23T11:54:26.368Z,15.70
2019-03-23T11:56:55.928Z,16.00
2019-03-23T11:59:24.889Z,16.20
2019-03-23T12:01:53.413Z,16.30
2019-03-23T12:04:21.866Z,16.20
2019-03-23T12:06:50.278Z,15.90
2019-03-23T12:09:18.750Z,16.10
2019-03-23T12:11:47.186Z,16.30
2019-03-23T12:14:15.671Z,16.50
2019-03-23T12:16:44.175Z,16.60
2019-03-23T12:19:12.636Z,16.70
2019-03-23T12:21:41.119Z,16.50
2019-03-23T12:24:09.543Z,16.30
2019-03-23T12:26:38.106Z,16.40
2019-03-23T12:29:06.554Z,16.40
2019-03-23T12:31:35.115Z,16.20
2019-03-23T12:34:03.668Z,16.50
2019-03-23T12:36:32.172Z,16.40
2019-03-23T12:39:00.876Z,16.80
2019-03-23T12:41:29.852Z,16.90
2019-03-23T12:43:58.277Z,16.70
2019-03-23T12:46:26.741Z,16.40
2019-03-23T12:48:55.175Z,16.40
2019-03-23T12:51:23.762Z,16.60
2019-03-23T12:53:52.259Z,16.80
2019-03-23T12:56:20.783Z,17.00
2019-03-23T12:58:49.257Z,17.30
2019-03-23T13:01:17.703Z,17.20
2019-03-23T13:03:46.212Z,16.90
2019-03-23T13:06:14.674Z,17.10
2019-03-23T13:08:43.353Z,16.90
2019-03-23T13:11:11.842Z,17.10
2019-03-23T13:13:40.349Z,17.10
2019-03-23T13:16:10.376Z,17.20
2019-03-23T13:18:38.846Z,17.30
2019-03-23T13:21:07.331Z,17.30
2019-03-23T13:23:35.769Z,17.00
2019-03-23T13:26:04.281Z,17.00
2019-03-23T13:28:32.815Z,17.20
2019-03-23T13:31:01.291Z,17.30
2019-03-23T13:33:29.760Z,17.20
2019-03-23T13:36:05.866Z,17.10
2019-03-23T13:38:34.321Z,17.10
2019-03-23T13:41:02.781Z,17.10
2019-03-23T13:43:31.244Z,17.10
2019-03-23T13:45:59.727Z,17.30
2019-03-23T13:48:28.339Z,17.50
2019-03-23T13:50:56.857Z,17.40
2019-03-23T13:53:25.338Z,17.40
2019-03-23T13:55:53.814Z,17.50
2019-03-23T13:58:22.320Z,17.40
2019-03-23T14:00:50.783Z,17.30
2019-03-23T14:03:19.360Z,17.20
2019-03-23T14:05:47.827Z,17.40
2019-03-23T14:08:16.287Z,17.40
2019-03-23T14:10:44.763Z,17.30
2019-03-23T14:13:13.195Z,17.50
2019-03-23T14:15:41.755Z,17.30
2019-03-23T14:18:10.233Z,17.30
2019-03-23T14:20:38.644Z,17.30
2019-03-23T14:23:07.127Z,17.50
2019-03-23T14:25:35.600Z,17.50
2019-03-23T14:28:04.216Z,17.40
2019-03-23T14:30:32.677Z,17.40
2019-03-23T14:33:01.113Z,17.30
2019-03-23T14:35:29.560Z,17.20
2019-03-23T14:37:58.025Z,17.30
2019-03-23T14:40:26.521Z,17.30
2019-03-23T14:42:55.011Z,17.40
2019-03-23T14:45:23.544Z,17.20
2019-03-23T14:47:51.966Z,17.20
2019-03-23T14:50:20.473Z,17.10
2019-03-23T14:52:49.031Z,17.10
2019-03-23T14:55:17.614Z,17.00
2019-03-23T14:57:46.969Z,17.00
2019-03-23T15:00:18.535Z,17.00
2019-03-23T15:02:46.952Z,16.90
2019-03-23T15:05:15.434Z,17.00
2019-03-23T15:07:43.900Z,17.00
2019-03-23T15:10:12.616Z,17.00
2019-03-23T15:12:41.050Z,17.00
2019-03-23T15:15:09.757Z,17.00
2019-03-23T15:17:48.220Z,16.90
2019-03-23T15:20:08.529Z,17.00
2019-03-23T15:22:37.047Z,16.90
2019-03-23T15:25:09.085Z,16.70
2019-03-23T15:27:37.582Z,16.70
2019-03-23T15:30:09.577Z,16.60
2019-03-23T15:32:38.187Z,16.40
2019-03-23T15:35:11.577Z,16.40
2019-03-23T15:37:40.933Z,16.00
2019-03-23T15:40:10.262Z,15.80
2019-03-23T15:42:38.983Z,15.70
2019-03-23T15:45:15.378Z,15.70
2019-03-23T15:47:45.294Z,15.60
2019-03-23T15:50:13.941Z,15.50
2019-03-23T15:52:42.422Z,15.40
2019-03-23T15:55:11.032Z,15.20
2019-03-23T15:57:39.486Z,15.10
2019-03-23T16:00:10.410Z,14.90
2019-03-23T16:02:38.908Z,14.90
2019-03-23T16:05:08.470Z,14.80
2019-03-23T16:07:37.022Z,14.70
2019-03-23T16:10:09.004Z,14.70
2019-03-23T16:12:37.910Z,14.60
2019-03-23T16:15:14.603Z,14.50
2019-03-23T16:17:43.202Z,14.40
2019-03-23T16:20:12.175Z,14.30
2019-03-23T16:22:41.129Z,14.20
2019-03-23T16:25:10.626Z,14.10
2019-03-23T16:27:39.063Z,14.00
2019-03-23T16:30:10.311Z,14.00
2019-03-23T16:32:38.813Z,13.80
2019-03-23T16:35:10.324Z,13.80
2019-03-23T16:37:38.842Z,13.70
2019-03-23T16:40:10.840Z,13.60
2019-03-23T16:42:45.574Z,13.50
2019-03-23T16:45:12.409Z,13.40
2019-03-23T16:47:40.949Z,13.40
2019-03-23T16:50:09.808Z,13.30
2019-03-23T16:52:38.902Z,13.20
2019-03-23T16:55:09.165Z,13.00
2019-03-23T16:57:37.627Z,12.90
2019-03-23T17:00:07.636Z,12.80
2019-03-23T17:02:36.156Z,12.70
2019-03-23T17:05:05.602Z,12.70
2019-03-23T17:07:34.154Z,12.60
2019-03-23T17:10:02.593Z,12.50
2019-03-23T17:12:31.024Z,12.40
2019-03-23T17:14:59.546Z,12.30
2019-03-23T17:17:28.010Z,12.20
2019-03-23T17:19:56.465Z,12.10
2019-03-23T17:22:24.962Z,12.00
2019-03-23T17:24:53.400Z,11.90
2019-03-23T17:27:21.848Z,11.80
2019-03-23T17:29:50.388Z,11.80
2019-03-23T17:32:18.923Z,11.70
2019-03-23T17:34:47.386Z,11.60
2019-03-23T17:37:16.130Z,11.60
2019-03-23T17:39:44.552Z,11.50
2019-03-23T17:42:13.153Z,11.40
2019-03-23T17:44:42.415Z,11.50
2019-03-23T17:47:10.945Z,11.40
2019-03-23T17:49:39.551Z,11.40
2019-03-23T17:52:07.982Z,11.40
2019-03-23T17:54:36.436Z,11.40
2019-03-23T17:57:04.872Z,11.40
2019-03-23T17:59:33.377Z,11.40
2019-03-23T18:02:01.863Z,11.30
2019-03-23T18:04:30.369Z,11.20
2019-03-23T18:06:58.894Z,10.90
2019-03-23T18:09:27.378Z,10.60
2019-03-23T18:11:55.862Z,10.40
2019-03-23T18:14:24.494Z,10.20
2019-03-23T18:16:53.035Z,10.10
2019-03-23T18:19:21.600Z,10.10
2019-03-23T18:21:50.034Z,10.30
2019-03-23T18:24:20.133Z,10.00
2019-03-23T18:26:48.587Z,9.80
2019-03-23T18:29:17.053Z,9.90
2019-03-23T18:31:45.506Z,9.90
2019-03-23T18:34:13.997Z,10.10
2019-03-23T18:36:42.477Z,10.10
2019-03-23T18:39:11.038Z,10.30
2019-03-23T18:41:39.470Z,10.80
2019-03-23T18:44:15.732Z,11.00
2019-03-23T18:46:38.542Z,11.10
2019-03-23T18:49:07.117Z,11.30
2019-03-23T18:51:35.610Z,11.20
2019-03-23T18:54:04.128Z,11.30
2019-03-23T18:56:32.587Z,11.20
2019-03-23T18:59:01.062Z,11.20
2019-03-23T19:01:29.614Z,11.10
2019-03-23T19:03:58.147Z,11.00
2019-03-23T19:06:26.599Z,10.90
2019-03-23T19:08:55.097Z,10.80
2019-03-23T19:11:26.396Z,10.80
2019-03-23T19:13:55.008Z,10.70
2019-03-23T19:16:23.485Z,10.70
2019-03-23T19:18:51.990Z,10.70
2019-03-23T19:21:20.450Z,10.60
2019-03-23T19:23:48.934Z,10.70
2019-03-23T19:26:17.437Z,10.70
2019-03-23T19:28:46.148Z,10.70
2019-03-23T19:31:14.594Z,10.60
2019-03-23T19:33:43.037Z,10.60
2019-03-23T19:36:13.148Z,10.50
2019-03-23T19:38:41.601Z,10.50
2019-03-23T19:41:10.107Z,10.40
2019-03-23T19:43:48.426Z,10.40
2019-03-23T19:46:08.946Z,10.30
2019-03-23T19:48:37.447Z,10.20
2019-03-23T19:51:06.015Z,10.20
2019-03-23T19:53:34.543Z,10.10
2019-03-23T19:56:03.031Z,10.10
2019-03-23T19:58:31.491Z,10.00
2019-03-23T20:00:59.973Z,10.00
2019-03-23T20:03:28.467Z,9.90
2019-03-23T20:05:56.930Z,9.80
2019-03-23T20:08:25.645Z,9.80
2019-03-23T20:10:54.149Z,9.80
2019-03-23T20:13:22.771Z,9.80
2019-03-23T20:15:51.354Z,9.60
2019-03-23T20:18:19.890Z,9.60
2019-03-23T20:20:48.402Z,9.50
2019-03-23T20:23:16.892Z,9.50
2019-03-23T20:25:45.486Z,9.50
2019-03-23T20:28:13.975Z,9.50
2019-03-23T20:30:42.652Z,9.40
2019-03-23T20:33:19.074Z,9.40
2019-03-23T20:35:41.320Z,9.40
2019-03-23T20:38:09.854Z,9.40
2019-03-23T20:40:38.292Z,9.30
2019-03-23T20:43:07.446Z,9.30
2019-03-23T20:45:35.890Z,9.20
2019-03-23T20:48:06.720Z,9.20
2019-03-23T20:50:35.853Z,9.10
2019-03-23T20:53:04.482Z,9.00
2019-03-23T20:55:33.014Z,8.90
2019-03-23T20:58:01.442Z,8.80
2019-03-23T21:00:32.478Z,8.90
2019-03-23T21:03:05.771Z,8.70
2019-03-23T21:05:36.637Z,8.60
2019-03-23T21:08:05.044Z,8.50
2019-03-23T21:10:37.071Z,8.40
2019-03-23T21:13:09.188Z,8.50
2019-03-23T21:15:43.324Z,8.40
2019-03-23T21:18:19.943Z,8.40
2019-03-23T21:20:51.245Z,8.30
2019-03-23T21:23:19.756Z,8.10
2019-03-23T21:25:56.851Z,8.10
2019-03-23T21:28:25.542Z,8.10
2019-03-23T21:30:54.351Z,8.10
2019-03-23T21:33:22.818Z,8.00
2019-03-23T21:35:51.317Z,8.00
2019-03-23T21:38:19.772Z,7.80
2019-03-23T21:40:48.240Z,7.70
2019-03-23T21:43:16.705Z,7.70
2019-03-23T21:45:45.347Z,7.60
2019-03-23T21:48:13.794Z,7.60
2019-03-23T21:50:47.371Z,7.50
2019-03-23T21:53:12.697Z,7.60
2019-03-23T21:55:41.173Z,7.60
2019-03-23T21:58:09.592Z,7.50
2019-03-23T22:00:38.153Z,7.50
2019-03-23T22:03:06.665Z,7.60
2019-03-23T22:05:35.242Z,7.60
2019-03-23T22:08:03.691Z,7.50
2019-03-23T22:10:32.123Z,7.50
2019-03-23T22:13:19.943Z,7.50
2019-03-23T22:15:48.502Z,7.50
2019-03-23T22:18:17.230Z,7.40
2019-03-23T22:20:45.716Z,7.30
2019-03-23T22:23:14.356Z,7.20
2019-03-23T22:25:45.689Z,7.20
2019-03-23T22:28:14.155Z,7.10
2019-03-23T22:30:42.594Z,7.10
2019-03-23T22:33:11.063Z,7.20
2019-03-23T22:35:40.619Z,7.20
2019-03-23T22:38:09.123Z,7.20
2019-03-23T22:40:37.587Z,7.10
2019-03-23T22:43:05.998Z,7.20
2019-03-23T22:45:35.827Z,7.20
2019-03-23T22:48:04.498Z,7.20
2019-03-23T22:50:33.033Z,7.20
2019-03-23T22:53:01.505Z,7.20
2019-03-23T22:55:30.023Z,7.20
2019-03-23T22:57:58.542Z,7.10
2019-03-23T23:00:43.944Z,7.20
2019-03-23T23:03:13.699Z,7.10
2019-03-23T23:05:42.290Z,7.00
2019-03-23T23:08:10.750Z,7.10
2019-03-23T23:10:39.286Z,7.00
2019-03-23T23:13:07.842Z,6.90
2019-03-23T23:15:55.593Z,7.00
2019-03-23T23:18:24.119Z,6.90
2019-03-23T23:20:52.578Z,6.90
2019-03-23T23:23:21.108Z,7.00
2019-03-23T23:25:49.551Z,7.00
2019-03-23T23:28:17.999Z,7.00
2019-03-23T23:30:46.673Z,6.90
2019-03-23T23:33:15.238Z,6.90
2019-03-23T23:35:43.736Z,6.90
2019-03-23T23:38:12.205Z,6.90
2019-03-23T23:40:40.722Z,6.80
2019-03-23T23:43:09.179Z,6.80
2019-03-23T23:45:37.668Z,6.90
2019-03-23T23:48:06.246Z,6.80
2019-03-23T23:50:34.723Z,6.80
2019-03-23T23:53:03.229Z,6.80
2019-03-23T23:55:31.964Z,6.70
2019-03-23T23:58:00.493Z,6.80
